Time;durP1;ratioP1;P1;durP2;ratioP2;P2;SDS_P1;SDS_P2;PMS_P1;PMS_P2;Temp;Humidity;BMP_temperature;BMP_pressure;BME280_temperature;BME280_humidity;BME280_pressure;Samples;Min_cycle;Max_cycle;Signal;HPM_P1;HPM_P2
2022/08/16 00:01:44;;;;;;;22.77;20.58;;;22.40;99.90;;;;;;5072790;28;20041;-92
2022/08/16 00:04:09;;;;;;;22.65;20.42;;;22.40;99.90;;;;;;5051211;28;20048;-91
2022/08/16 00:06:35;;;;;;;20.00;18.08;;;22.40;99.90;;;;;;5070912;28;20041;-92
2022/08/16 00:09:01;;;;;;;22.95;20.67;;;22.40;99.90;;;;;;5073616;28;20059;-92
2022/08/16 00:11:27;;;;;;;20.27;18.38;;;22.40;99.90;;;;;;5073243;28;20166;-92
2022/08/16 00:13:52;;;;;;;20.45;18.48;;;22.30;99.90;;;;;;5056410;28;20094;-92
2022/08/16 00:16:18;;;;;;;21.90;19.90;;;22.30;99.90;;;;;;5047180;28;20501;-92
2022/08/16 00:18:44;;;;;;;20.70;18.75;;;22.30;99.90;;;;;;5067752;28;20043;-92
2022/08/16 00:21:10;;;;;;;20.23;18.33;;;22.30;99.90;;;;;;5040498;28;20127;-92
2022/08/16 00:23:36;;;;;;;20.90;18.80;;;22.30;99.90;;;;;;5041910;28;20112;-92
2022/08/16 00:26:01;;;;;;;20.23;18.23;;;22.30;99.90;;;;;;5053340;28;20517;-93
2022/08/16 00:28:27;;;;;;;20.27;18.27;;;22.20;99.90;;;;;;5053351;28;20067;-92
2022/08/16 00:30:52;;;;;;;20.95;18.85;;;22.20;99.90;;;;;;5037008;28;20402;-92
2022/08/16 00:33:18;;;;;;;21.92;19.60;;;22.20;99.90;;;;;;5053818;28;20041;-93
2022/08/16 00:35:44;;;;;;;21.63;19.23;;;22.20;99.90;;;;;;5053509;28;20516;-92
2022/08/16 00:38:10;;;;;;;22.25;20.25;;;22.20;99.90;;;;;;5053345;28;20059;-92
2022/08/16 00:40:48;;;;;;;22.75;20.55;;;22.20;99.90;;;;;;5054798;28;20033;-92
2022/08/16 00:43:17;;;;;;;20.70;18.90;;;22.20;99.90;;;;;;5054215;28;20037;-92
2022/08/16 00:46:10;;;;;;;21.63;19.55;;;22.20;99.90;;;;;;5053261;28;20537;-93
2022/08/16 00:48:36;;;;;;;22.75;20.52;;;22.20;99.90;;;;;;5053052;28;20041;-92
2022/08/16 00:51:03;;;;;;;20.27;18.38;;;22.10;99.90;;;;;;5035908;28;20123;-93
2022/08/16 00:53:29;;;;;;;22.75;20.73;;;22.10;99.90;;;;;;5053146;28;20558;-92
2022/08/16 00:56:01;;;;;;;24.00;21.65;;;22.10;99.90;;;;;;5053253;28;20048;-93
2022/08/16 00:58:30;;;;;;;22.35;20.35;;;22.10;99.90;;;;;;5036410;28;20072;-93
2022/08/16 01:00:55;;;;;;;24.48;22.08;;;22.10;99.90;;;;;;5052462;28;20449;-91
2022/08/16 01:03:24;;;;;;;23.77;21.58;;;22.10;99.90;;;;;;5053100;28;20547;-92
2022/08/16 01:05:50;;;;;;;24.20;21.95;;;22.10;99.90;;;;;;5052869;28;20041;-92
2022/08/16 01:08:19;;;;;;;21.90;19.90;;;22.10;99.90;;;;;;5052817;28;20048;-92
2022/08/16 01:10:45;;;;;;;23.73;21.55;;;22.10;99.90;;;;;;5052878;28;20040;-92
2022/08/16 01:13:14;;;;;;;23.63;21.42;;;22.10;99.90;;;;;;5052854;28;20057;-92
2022/08/16 01:15:45;;;;;;;23.08;20.90;;;22.00;99.90;;;;;;5052007;28;20044;-93
2022/08/16 01:18:18;;;;;;;25.17;22.88;;;22.00;99.90;;;;;;5052666;28;20565;-92
2022/08/16 01:20:54;;;;;;;22.90;20.90;;;22.00;99.90;;;;;;5052459;28;20036;-92
2022/08/16 01:23:28;;;;;;;23.15;21.05;;;22.00;99.90;;;;;;5052320;28;20047;-92
2022/08/16 01:25:54;;;;;;;22.08;20.15;;;21.90;99.90;;;;;;5035922;28;20509;-93
2022/08/16 01:28:20;;;;;;;22.30;20.13;;;21.90;99.90;;;;;;5052639;28;20120;-93
2022/08/16 01:30:53;;;;;;;21.80;19.88;;;21.90;99.90;;;;;;5052021;28;20124;-91
2022/08/16 01:33:20;;;;;;;21.75;19.67;;;21.90;99.90;;;;;;5052377;28;20091;-93
2022/08/16 01:36:00;;;;;;;22.52;20.27;;;21.90;99.90;;;;;;5052157;28;20403;-92
2022/08/16 01:38:31;;;;;;;23.42;21.33;;;21.90;99.90;;;;;;5052574;28;20062;-93
2022/08/16 01:41:09;;;;;;;25.05;22.60;;;21.90;99.90;;;;;;5053174;28;20059;-92
2022/08/16 01:43:37;;;;;;;25.88;23.15;;;21.90;99.90;;;;;;5053159;28;20029;-92
2022/08/16 01:46:06;;;;;;;25.17;22.83;;;21.90;99.90;;;;;;5071977;28;20032;-93
2022/08/16 01:48:32;;;;;;;25.48;23.00;;;21.90;99.90;;;;;;5071813;28;20032;-93
2022/08/16 01:51:00;;;;;;;25.00;22.70;;;21.90;99.90;;;;;;5071583;28;20044;-93
2022/08/16 01:53:27;;;;;;;25.88;23.48;;;21.90;99.90;;;;;;5071032;28;20040;-93
2022/08/16 01:55:53;;;;;;;26.10;23.52;;;21.90;99.90;;;;;;5071375;28;20040;-92
2022/08/16 01:58:21;;;;;;;25.58;22.95;;;21.80;99.90;;;;;;5071995;28;20405;-92
2022/08/16 02:00:50;;;;;;;25.23;22.83;;;21.80;99.90;;;;;;5071384;28;20040;-91
2022/08/16 02:03:16;;;;;;;25.95;23.75;;;21.80;99.90;;;;;;5070857;28;20040;-92
2022/08/16 02:05:41;;;;;;;27.17;24.67;;;21.80;99.90;;;;;;5071586;28;20042;-93
2022/08/16 02:08:08;;;;;;;28.25;25.65;;;21.80;99.90;;;;;;5071562;28;20143;-92
2022/08/16 02:10:36;;;;;;;27.00;24.50;;;21.70;99.90;;;;;;5071548;28;20059;-92
2022/08/16 02:13:04;;;;;;;26.55;24.00;;;21.70;99.90;;;;;;5070995;28;20083;-92
2022/08/16 02:15:32;;;;;;;27.48;24.98;;;21.70;99.90;;;;;;5071497;28;20063;-92
2022/08/16 02:17:59;;;;;;;27.40;24.98;;;21.70;99.90;;;;;;5071171;28;20041;-92
2022/08/16 02:20:27;;;;;;;27.25;24.80;;;21.60;99.90;;;;;;5054472;28;20037;-93
2022/08/16 02:22:54;;;;;;;27.70;25.30;;;21.60;99.90;;;;;;5070490;28;20418;-92
2022/08/16 02:25:19;;;;;;;30.13;27.40;;;21.60;99.90;;;;;;5071584;28;20066;-93
2022/08/16 02:27:45;;;;;;;28.17;25.60;;;21.50;99.90;;;;;;5071053;28;20037;-92
2022/08/16 02:30:15;;;;;;;29.17;26.75;;;21.50;99.90;;;;;;5070705;28;20085;-92
2022/08/16 02:32:42;;;;;;;28.98;26.38;;;21.40;99.90;;;;;;5054351;28;20040;-93
2022/08/16 02:35:08;;;;;;;30.70;27.92;;;21.50;99.90;;;;;;5071153;28;20048;-92
2022/08/16 02:37:34;;;;;;;29.45;26.65;;;21.40;99.90;;;;;;5070985;28;20398;-92
2022/08/16 02:40:00;;;;;;;29.85;27.20;;;21.40;99.90;;;;;;5054234;28;20036;-92
2022/08/16 02:42:25;;;;;;;29.98;27.45;;;21.40;99.90;;;;;;5070135;28;20043;-93
2022/08/16 02:44:51;;;;;;;30.33;27.65;;;21.40;99.90;;;;;;5070933;28;20048;-92
2022/08/16 02:47:16;;;;;;;28.95;26.15;;;21.40;99.90;;;;;;5070678;28;20086;-93
2022/08/16 02:49:42;;;;;;;29.80;27.10;;;21.40;99.90;;;;;;5070748;28;20040;-92
2022/08/16 02:52:09;;;;;;;29.42;26.77;;;21.40;99.90;;;;;;5070446;28;20048;-92
2022/08/16 02:54:35;;;;;;;29.42;26.58;;;21.30;99.90;;;;;;5070776;28;20040;-93
2022/08/16 02:57:01;;;;;;;30.20;27.60;;;21.30;99.90;;;;;;5070393;28;20409;-92
2022/08/16 02:59:26;;;;;;;28.35;25.92;;;21.30;99.90;;;;;;5053132;28;20119;-92
2022/08/16 03:01:52;;;;;;;28.08;25.77;;;21.30;99.90;;;;;;5069989;28;20118;-93
2022/08/16 03:04:19;;;;;;;29.02;26.50;;;21.30;99.90;;;;;;5053500;28;20080;-92
2022/08/16 03:06:44;;;;;;;30.50;27.83;;;21.30;99.90;;;;;;5070572;28;20115;-92
2022/08/16 03:09:10;;;;;;;31.58;28.75;;;21.30;99.90;;;;;;5052957;28;20485;-93
2022/08/16 03:11:35;;;;;;;31.25;28.45;;;21.30;99.90;;;;;;5070165;28;20085;-93
2022/08/16 03:14:02;;;;;;;31.40;28.50;;;21.30;99.90;;;;;;5070653;28;20128;-92
2022/08/16 03:16:27;;;;;;;29.60;26.90;;;21.30;99.90;;;;;;5070686;28;20051;-92
2022/08/16 03:18:53;;;;;;;30.10;27.30;;;21.30;99.90;;;;;;5053657;28;20040;-93
2022/08/16 03:21:20;;;;;;;31.40;28.42;;;21.30;99.90;;;;;;5069992;28;20089;-92
2022/08/16 03:23:45;;;;;;;30.33;27.52;;;21.20;99.90;;;;;;5054024;28;20418;-93
2022/08/16 03:26:12;;;;;;;29.98;27.30;;;21.20;99.90;;;;;;5070261;28;20041;-93
2022/08/16 03:28:38;;;;;;;31.85;29.05;;;21.10;99.90;;;;;;5070162;28;20048;-93
2022/08/16 03:31:05;;;;;;;30.42;27.80;;;21.10;99.90;;;;;;5069933;28;20501;-93
2022/08/16 03:33:31;;;;;;;31.33;28.30;;;21.10;99.90;;;;;;5053842;28;20040;-92
2022/08/16 03:35:58;;;;;;;30.48;27.75;;;21.10;99.90;;;;;;5070553;28;20037;-93
2022/08/16 03:38:25;;;;;;;32.13;29.25;;;21.00;99.90;;;;;;5053766;28;20037;-93
2022/08/16 03:40:51;;;;;;;31.10;28.45;;;21.00;99.90;;;;;;5069818;28;20541;-92
2022/08/16 03:43:17;;;;;;;30.27;27.50;;;21.00;99.90;;;;;;5070268;28;20119;-92
2022/08/16 03:45:43;;;;;;;32.13;29.05;;;21.00;99.90;;;;;;5070262;28;20060;-93
2022/08/16 03:48:09;;;;;;;32.72;29.67;;;20.90;99.90;;;;;;5070180;28;20131;-92
2022/08/16 03:50:36;;;;;;;34.45;31.40;;;20.90;99.90;;;;;;5070599;28;20123;-93
2022/08/16 03:53:03;;;;;;;34.63;31.73;;;20.90;99.90;;;;;;5069512;28;20413;-92
2022/08/16 03:55:29;;;;;;;33.40;30.30;;;20.90;99.90;;;;;;5053520;28;20213;-92
2022/08/16 03:57:54;;;;;;;33.88;30.83;;;20.80;99.90;;;;;;5053038;28;20511;-92
2022/08/16 04:00:24;;;;;;;33.10;30.30;;;20.80;99.90;;;;;;5069940;28;20040;-92
2022/08/16 04:02:51;;;;;;;32.80;29.80;;;20.80;99.90;;;;;;5070044;28;20406;-92
2022/08/16 04:05:17;;;;;;;33.08;30.27;;;20.80;99.90;;;;;;5053353;28;20039;-92
2022/08/16 04:07:43;;;;;;;34.50;31.50;;;20.80;99.90;;;;;;5053397;28;20041;-92
2022/08/16 04:10:11;;;;;;;33.15;30.10;;;20.70;99.90;;;;;;5053176;28;20037;-92
2022/08/16 04:12:38;;;;;;;33.10;30.13;;;20.70;99.90;;;;;;5052837;28;20040;-92
2022/08/16 04:15:06;;;;;;;33.67;30.83;;;20.70;99.90;;;;;;5052897;28;20043;-92
2022/08/16 04:17:32;;;;;;;33.10;30.17;;;20.70;99.90;;;;;;5053012;28;20059;-93
2022/08/16 04:19:57;;;;;;;29.52;26.92;;;20.70;99.90;;;;;;5071954;28;20414;-92
2022/08/16 04:22:24;;;;;;;30.88;27.95;;;20.60;99.90;;;;;;5056097;28;20086;-92
2022/08/16 04:24:51;;;;;;;31.95;28.92;;;20.60;99.90;;;;;;5073640;28;20589;-92
2022/08/16 04:27:17;;;;;;;30.00;27.33;;;20.60;99.90;;;;;;5073194;28;20440;-92
2022/08/16 04:29:42;;;;;;;31.25;28.27;;;20.60;99.90;;;;;;5073565;28;20101;-92
2022/08/16 04:32:08;;;;;;;31.20;28.25;;;20.60;99.90;;;;;;5072850;28;20053;-92
2022/08/16 04:34:36;;;;;;;30.35;27.58;;;20.60;99.90;;;;;;5056522;28;20044;-92
2022/08/16 04:37:02;;;;;;;29.85;27.25;;;20.60;99.90;;;;;;5056297;28;20048;-92
2022/08/16 04:39:30;;;;;;;29.55;26.95;;;20.60;99.90;;;;;;5055755;28;20044;-92
2022/08/16 04:41:56;;;;;;;29.92;27.23;;;20.50;99.90;;;;;;5056469;28;20047;-92
2022/08/16 04:44:21;;;;;;;29.70;26.90;;;20.50;99.90;;;;;;5073159;28;20036;-92
2022/08/16 04:46:47;;;;;;;27.85;25.23;;;20.50;99.90;;;;;;5073133;28;20371;-92
2022/08/16 04:49:12;;;;;;;29.33;26.40;;;20.50;99.90;;;;;;5055348;28;20074;-92
2022/08/16 04:51:41;;;;;;;28.92;26.17;;;20.50;99.90;;;;;;5072209;28;20198;-92
2022/08/16 04:54:08;;;;;;;30.55;27.60;;;20.50;99.90;;;;;;5072452;28;20178;-93
2022/08/16 04:56:34;;;;;;;29.10;26.25;;;20.50;99.90;;;;;;5072723;28;20044;-92
2022/08/16 04:59:00;;;;;;;28.70;26.08;;;20.40;99.90;;;;;;5056554;28;20047;-92
2022/08/16 05:01:26;;;;;;;27.63;25.17;;;20.40;99.90;;;;;;5072507;28;20072;-91
2022/08/16 05:03:52;;;;;;;28.52;25.95;;;20.40;99.90;;;;;;5072348;28;20084;-92
2022/08/16 05:06:18;;;;;;;29.65;26.75;;;20.30;99.90;;;;;;5072658;28;20039;-92
2022/08/16 05:08:43;;;;;;;27.95;25.27;;;20.40;99.90;;;;;;5055989;28;20037;-92
2022/08/16 05:11:11;;;;;;;28.70;26.00;;;20.40;99.90;;;;;;5055878;28;20042;-92
2022/08/16 05:13:41;;;;;;;30.15;27.27;;;20.40;99.90;;;;;;5055968;28;20044;-92
2022/08/16 05:16:12;;;;;;;29.45;26.55;;;20.30;99.90;;;;;;5056256;28;20398;-92
2022/08/16 05:18:38;;;;;;;28.83;26.25;;;20.30;99.90;;;;;;5072995;28;20393;-92
2022/08/16 05:21:03;;;;;;;29.50;26.77;;;20.30;99.90;;;;;;5072224;28;20062;-92
2022/08/16 05:23:29;;;;;;;27.88;25.30;;;20.40;99.90;;;;;;5072208;28;20037;-92
2022/08/16 05:25:55;;;;;;;30.42;27.40;;;20.30;99.90;;;;;;5072373;28;20047;-92
2022/08/16 05:28:20;;;;;;;28.65;25.95;;;20.40;99.90;;;;;;5072557;28;20043;-92
2022/08/16 05:30:46;;;;;;;30.10;27.20;;;20.30;99.90;;;;;;5071398;28;20037;-92
2022/08/16 05:33:12;;;;;;;30.17;27.38;;;20.40;99.90;;;;;;5071073;28;20082;-91
2022/08/16 05:35:38;;;;;;;28.25;25.45;;;20.40;99.90;;;;;;5071770;28;20048;-92
2022/08/16 05:38:03;;;;;;;31.35;28.38;;;20.40;99.90;;;;;;5072053;28;20125;-92
2022/08/16 05:40:29;;;;;;;30.10;27.30;;;20.40;99.90;;;;;;5055533;28;20127;-92
2022/08/16 05:42:55;;;;;;;28.08;25.52;;;20.40;99.90;;;;;;5071651;28;20041;-92
2022/08/16 05:45:20;;;;;;;29.20;26.30;;;20.50;99.90;;;;;;5055081;28;20040;-93
2022/08/16 05:47:46;;;;;;;27.65;25.05;;;20.50;99.90;;;;;;5071223;28;20397;-92
2022/08/16 05:50:12;;;;;;;28.08;25.35;;;20.60;99.90;;;;;;5071626;28;20093;-92
2022/08/16 05:52:38;;;;;;;28.15;25.45;;;20.60;99.90;;;;;;5071615;28;20123;-93
2022/08/16 05:55:04;;;;;;;26.83;24.23;;;20.60;99.90;;;;;;5054964;28;20120;-93
2022/08/16 05:57:30;;;;;;;27.77;24.98;;;20.60;99.90;;;;;;5055213;28;20055;-92
2022/08/16 05:59:56;;;;;;;27.38;24.90;;;20.70;99.90;;;;;;5055231;28;20037;-93
2022/08/16 06:02:26;;;;;;;27.48;25.00;;;20.70;99.90;;;;;;5071232;28;20052;-92
2022/08/16 06:04:51;;;;;;;25.67;23.13;;;20.70;99.90;;;;;;5071501;28;20036;-92
2022/08/16 06:07:17;;;;;;;27.13;24.52;;;20.80;99.90;;;;;;5071154;28;20040;-93
2022/08/16 06:09:43;;;;;;;27.38;24.60;;;20.90;99.90;;;;;;5071494;28;20043;-92
2022/08/16 06:12:10;;;;;;;28.38;25.50;;;20.90;99.90;;;;;;5054640;28;20456;-92
2022/08/16 06:14:35;;;;;;;25.85;23.45;;;21.00;99.90;;;;;;5071463;28;20054;-93
2022/08/16 06:17:01;;;;;;;27.50;24.88;;;21.00;99.90;;;;;;5071175;28;20182;-92
2022/08/16 06:19:27;;;;;;;25.58;23.10;;;21.10;99.90;;;;;;5071088;28;20037;-93
2022/08/16 06:21:52;;;;;;;24.92;22.73;;;21.10;99.90;;;;;;5070792;28;20037;-93
2022/08/16 06:24:18;;;;;;;25.60;23.05;;;21.20;99.90;;;;;;5054575;28;20157;-93
2022/08/16 06:26:43;;;;;;;24.92;22.55;;;21.20;99.90;;;;;;5071040;28;20067;-92
2022/08/16 06:29:09;;;;;;;25.02;22.52;;;21.30;99.90;;;;;;5071059;28;20567;-93
2022/08/16 06:31:35;;;;;;;24.52;22.23;;;21.30;99.90;;;;;;5070236;28;20124;-92
2022/08/16 06:34:01;;;;;;;20.27;18.30;;;21.30;99.90;;;;;;5070600;28;20120;-92
2022/08/16 06:36:28;;;;;;;19.50;17.60;;;21.30;99.90;;;;;;5054100;28;20094;-93
2022/08/16 06:38:53;;;;;;;19.98;18.00;;;21.40;99.90;;;;;;5070762;28;20040;-92
2022/08/16 06:41:19;;;;;;;20.60;18.67;;;21.40;99.90;;;;;;5070729;28;20128;-92
2022/08/16 06:43:44;;;;;;;20.63;18.52;;;21.40;99.90;;;;;;5070287;28;20028;-92
2022/08/16 06:46:26;;;;;;;20.70;18.60;;;21.40;99.90;;;;;;5070863;28;20094;-92
2022/08/16 06:48:52;;;;;;;20.60;18.50;;;21.40;99.90;;;;;;5069969;28;20041;-93
2022/08/16 06:51:17;;;;;;;21.08;19.08;;;21.50;99.90;;;;;;5059162;28;20033;-93
2022/08/16 06:53:43;;;;;;;21.20;19.15;;;21.50;99.90;;;;;;5055864;28;20506;-93
2022/08/16 06:56:09;;;;;;;22.50;20.20;;;21.60;99.90;;;;;;5057548;28;20036;-92
2022/08/16 06:58:35;;;;;;;22.23;19.55;;;21.70;99.90;;;;;;5052832;28;20041;-93
2022/08/16 07:01:01;;;;;;;21.92;19.73;;;21.80;99.90;;;;;;5069783;28;20040;-93
2022/08/16 07:03:29;;;;;;;22.05;19.83;;;21.80;99.90;;;;;;5053542;28;20559;-93
2022/08/16 07:05:58;;;;;;;22.58;20.00;;;21.80;99.90;;;;;;5053368;28;20086;-93
2022/08/16 07:08:25;;;;;;;23.33;19.50;;;21.80;99.90;;;;;;5070279;28;20515;-93
2022/08/16 07:10:52;;;;;;;22.58;20.38;;;21.90;99.90;;;;;;5059980;28;20055;-93
2022/08/16 07:13:19;;;;;;;22.33;20.02;;;21.90;99.90;;;;;;5063137;28;20086;-93
2022/08/16 07:15:45;;;;;;;22.88;20.67;;;21.90;99.90;;;;;;5070699;28;20044;-93
2022/08/16 07:18:11;;;;;;;22.88;20.67;;;21.90;99.90;;;;;;5070034;28;20127;-92
2022/08/16 07:20:38;;;;;;;22.17;19.90;;;22.00;99.90;;;;;;5069560;28;20494;-92
2022/08/16 07:23:05;;;;;;;23.45;21.05;;;22.00;99.90;;;;;;5062799;28;20037;-93
2022/08/16 07:25:31;;;;;;;23.15;20.85;;;22.00;99.90;;;;;;5054654;28;20064;-93
2022/08/16 07:27:57;;;;;;;23.83;21.35;;;22.00;99.90;;;;;;5049628;28;20029;-93
2022/08/16 07:30:24;;;;;;;24.38;21.98;;;22.10;99.90;;;;;;5050173;28;20033;-93
2022/08/16 07:32:49;;;;;;;25.27;22.80;;;22.10;99.90;;;;;;5041956;28;20040;-93
2022/08/16 07:35:16;;;;;;;25.80;23.02;;;22.20;99.90;;;;;;5064314;28;20033;-93
2022/08/16 07:37:42;;;;;;;26.83;24.13;;;22.20;99.90;;;;;;5053290;28;20143;-94
2022/08/16 07:40:08;;;;;;;26.35;23.77;;;22.30;99.90;;;;;;5070149;28;20545;-93
2022/08/16 07:42:34;;;;;;;25.30;22.90;;;22.40;99.90;;;;;;5069270;28;20123;-92
2022/08/16 07:44:59;;;;;;;26.60;24.02;;;22.50;99.90;;;;;;5069908;28;20136;-93
2022/08/16 07:47:25;;;;;;;25.88;23.30;;;22.60;99.90;;;;;;5069093;28;20127;-92
2022/08/16 07:49:50;;;;;;;28.05;25.30;;;22.60;99.90;;;;;;5069453;28;20040;-92
2022/08/16 07:52:16;;;;;;;26.45;23.95;;;22.70;99.90;;;;;;5061513;28;20064;-93
2022/08/16 07:54:42;;;;;;;25.65;23.25;;;22.80;99.90;;;;;;5061972;28;20043;-93
2022/08/16 07:57:07;;;;;;;26.92;24.38;;;22.80;99.90;;;;;;5057520;28;20117;-93
2022/08/16 07:59:33;;;;;;;26.30;23.70;;;22.80;99.90;;;;;;5073325;28;20067;-93
2022/08/16 08:01:58;;;;;;;26.17;23.58;;;22.90;99.90;;;;;;5072961;28;20202;-93
2022/08/16 08:04:25;;;;;;;24.38;21.80;;;23.00;99.90;;;;;;5053046;28;20044;-92
2022/08/16 08:06:51;;;;;;;25.50;22.65;;;23.00;99.90;;;;;;5069053;28;20467;-93
2022/08/16 08:09:16;;;;;;;25.60;23.10;;;23.10;99.90;;;;;;5074855;28;20482;-92
2022/08/16 08:11:44;;;;;;;26.58;24.02;;;23.20;99.90;;;;;;5062357;28;20494;-93
2022/08/16 08:14:11;;;;;;;25.83;23.17;;;23.30;99.90;;;;;;5046426;28;20577;-93
2022/08/16 08:16:37;;;;;;;25.63;23.10;;;23.30;99.90;;;;;;5043719;28;20041;-93
2022/08/16 08:19:03;;;;;;;26.13;23.52;;;23.50;99.90;;;;;;5062783;28;20086;-93
2022/08/16 08:21:31;;;;;;;24.95;22.52;;;23.50;99.90;;;;;;5057789;28;20510;-92
2022/08/16 08:23:57;;;;;;;24.20;21.83;;;23.60;99.90;;;;;;5056208;28;20131;-92
2022/08/16 08:26:24;;;;;;;24.00;21.67;;;23.60;99.90;;;;;;5072783;28;20484;-93
2022/08/16 08:28:49;;;;;;;24.42;22.10;;;23.70;99.90;;;;;;5070095;28;20043;-93
2022/08/16 08:31:15;;;;;;;23.80;21.38;;;23.80;99.90;;;;;;5056606;28;20025;-93
2022/08/16 08:33:41;;;;;;;23.67;21.35;;;23.90;99.90;;;;;;5073467;28;20622;-93
2022/08/16 08:36:12;;;;;;;23.02;20.75;;;24.00;99.90;;;;;;5055869;28;20082;-93
2022/08/16 08:38:38;;;;;;;22.17;19.92;;;24.10;99.90;;;;;;5073333;28;20123;-93
2022/08/16 08:41:05;;;;;;;23.60;20.17;;;24.20;99.90;;;;;;5056088;28;20132;-92
2022/08/16 08:43:30;;;;;;;23.42;21.08;;;24.20;99.90;;;;;;5072825;28;20612;-93
2022/08/16 08:45:56;;;;;;;22.77;20.48;;;24.30;99.90;;;;;;5070284;28;20045;-92
2022/08/16 08:48:22;;;;;;;24.15;21.65;;;24.30;99.90;;;;;;5067610;28;20048;-93
2022/08/16 08:50:48;;;;;;;21.95;19.73;;;24.40;99.90;;;;;;5064077;28;20036;-93
2022/08/16 08:53:14;;;;;;;20.55;18.45;;;24.50;99.90;;;;;;5061918;28;20125;-93
2022/08/16 08:55:41;;;;;;;21.05;19.00;;;24.50;99.90;;;;;;5062477;28;20052;-93
2022/08/16 08:58:07;;;;;;;19.83;17.70;;;24.60;99.90;;;;;;5045861;28;20383;-93
2022/08/16 09:00:33;;;;;;;20.42;18.20;;;24.70;99.90;;;;;;5063127;28;20041;-94
2022/08/16 09:02:59;;;;;;;19.27;17.30;;;24.70;99.90;;;;;;5044195;28;20376;-93
2022/08/16 09:05:26;;;;;;;20.25;18.25;;;24.80;99.90;;;;;;5046721;28;20178;-93
2022/08/16 09:07:53;;;;;;;19.60;17.67;;;24.80;99.90;;;;;;5061198;28;20085;-93
2022/08/16 09:10:19;;;;;;;18.60;16.80;;;24.90;99.90;;;;;;5063081;28;20037;-94
2022/08/16 09:12:45;;;;;;;18.73;16.55;;;24.90;99.90;;;;;;5044791;28;20243;-94
2022/08/16 09:15:13;;;;;;;18.48;14.77;;;25.00;99.90;;;;;;5062613;28;20441;-93
2022/08/16 09:17:39;;;;;;;16.83;15.02;;;25.10;99.90;;;;;;5049272;28;20039;-94
2022/08/16 09:20:06;;;;;;;17.13;15.23;;;25.10;99.90;;;;;;5052312;28;20410;-93
2022/08/16 09:22:32;;;;;;;16.88;14.40;;;25.20;99.90;;;;;;5051906;28;20064;-93
2022/08/16 09:24:58;;;;;;;17.10;13.95;;;25.20;99.90;;;;;;5052251;28;20565;-93
2022/08/16 09:27:24;;;;;;;18.08;15.23;;;25.30;99.90;;;;;;5052752;28;20115;-93
2022/08/16 09:29:50;;;;;;;14.95;13.40;;;25.30;99.90;;;;;;5052396;28;20123;-93
2022/08/16 09:32:17;;;;;;;14.95;13.27;;;25.40;99.90;;;;;;5051977;28;20076;-93
2022/08/16 09:34:43;;;;;;;17.65;13.85;;;25.50;99.90;;;;;;5035765;28;20177;-91
2022/08/16 09:37:09;;;;;;;14.48;12.82;;;25.60;99.40;;;;;;5051893;28;20083;-93
2022/08/16 09:39:34;;;;;;;16.45;13.95;;;25.60;99.90;;;;;;5052035;28;20072;-93
2022/08/16 09:42:01;;;;;;;15.20;13.40;;;25.60;97.60;;;;;;5051795;28;20045;-92
2022/08/16 09:44:27;;;;;;;16.00;14.05;;;25.70;99.50;;;;;;5060262;28;20577;-93
2022/08/16 09:46:54;;;;;;;16.05;13.10;;;25.80;99.00;;;;;;5053983;28;20424;-93
2022/08/16 09:49:21;;;;;;;20.40;12.55;;;25.80;97.00;;;;;;5071932;28;20036;-93
2022/08/16 09:51:53;;;;;;;16.00;11.90;;;25.90;97.50;;;;;;5055069;28;20040;-93
2022/08/16 09:54:23;;;;;;;12.57;10.95;;;26.00;95.70;;;;;;5071843;28;20399;-93
2022/08/16 09:56:50;;;;;;;14.82;12.82;;;26.00;93.90;;;;;;5071869;28;20054;-94
2022/08/16 09:59:15;;;;;;;14.93;12.00;;;26.00;93.60;;;;;;5055323;28;20068;-93
2022/08/16 10:01:43;;;;;;;14.63;11.70;;;26.10;93.50;;;;;;5072924;28;20079;-94
2022/08/16 10:04:10;;;;;;;12.65;10.85;;;26.20;94.70;;;;;;5054331;28;20036;-94
2022/08/16 10:06:36;;;;;;;13.63;11.02;;;26.20;92.90;;;;;;5054931;28;20036;-93
2022/08/16 10:09:05;;;;;;;13.63;11.90;;;26.30;94.40;;;;;;5055167;28;20036;-93
2022/08/16 10:14:15;;;;;;;14.25;11.32;;;26.50;93.10;;;;;;5071636;28;20040;-93
2022/08/16 10:16:44;;;;;;;13.38;11.20;;;26.50;91.90;;;;;;5071196;28;20076;-93
2022/08/16 10:19:11;;;;;;;17.00;12.95;;;26.50;91.40;;;;;;5071266;28;20403;-93
2022/08/16 10:21:38;;;;;;;12.48;9.27;;;26.60;93.10;;;;;;5070807;28;20043;-93
2022/08/16 10:24:04;;;;;;;11.93;9.57;;;26.70;90.90;;;;;;5069647;28;20041;-94
2022/08/16 10:26:32;;;;;;;11.52;8.93;;;26.80;89.60;;;;;;5070277;28;20041;-93
2022/08/16 10:28:58;;;;;;;12.13;7.50;;;26.80;87.30;;;;;;5070811;28;20405;-93
2022/08/16 10:31:24;;;;;;;15.13;9.65;;;26.90;86.60;;;;;;5070685;28;20044;-93
2022/08/16 10:33:50;;;;;;;14.43;10.35;;;27.00;82.40;;;;;;5071029;28;20047;-93
2022/08/16 10:36:16;;;;;;;11.27;9.88;;;27.00;81.00;;;;;;5054474;28;20044;-92
2022/08/16 10:38:42;;;;;;;10.52;8.27;;;26.90;79.70;;;;;;5070964;28;20036;-93
2022/08/16 10:41:08;;;;;;;9.82;7.07;;;27.00;84.50;;;;;;5070881;28;20114;-93
2022/08/16 10:43:36;;;;;;;11.80;8.43;;;27.10;79.90;;;;;;5053608;28;20426;-93
2022/08/16 10:46:04;;;;;;;12.75;8.75;;;27.10;80.00;;;;;;5071165;28;20040;-93
2022/08/16 10:48:30;;;;;;;10.73;6.28;;;27.20;78.10;;;;;;5054558;28;20397;-93
2022/08/16 10:50:57;;;;;;;9.32;6.65;;;27.30;76.10;;;;;;5070843;28;20032;-94
2022/08/16 10:53:25;;;;;;;10.77;6.57;;;27.30;72.20;;;;;;5054219;28;20048;-94
2022/08/16 10:55:50;;;;;;;11.88;8.10;;;27.40;71.70;;;;;;5053546;28;20127;-94
2022/08/16 10:58:16;;;;;;;10.57;6.63;;;27.40;72.60;;;;;;5053667;28;20128;-94
2022/08/16 11:00:43;;;;;;;9.95;6.47;;;27.50;73.60;;;;;;5072041;28;20161;-93
2022/08/16 11:03:09;;;;;;;9.52;6.35;;;27.60;70.40;;;;;;5070550;28;20102;-93
2022/08/16 11:05:37;;;;;;;10.02;6.13;;;27.60;69.60;;;;;;5054135;28;20025;-93
2022/08/16 11:08:04;;;;;;;10.27;7.38;;;27.70;69.60;;;;;;5054098;28;20051;-93
2022/08/16 11:10:42;;;;;;;12.65;7.47;;;27.70;68.60;;;;;;5070996;28;20454;-93
2022/08/16 11:13:15;;;;;;;10.45;7.43;;;27.80;70.80;;;;;;5070903;28;20080;-93
2022/08/16 11:15:43;;;;;;;10.50;8.10;;;27.90;70.40;;;;;;5070402;28;20407;-93
2022/08/16 11:18:10;;;;;;;11.63;8.27;;;28.00;69.50;;;;;;5070912;28;20383;-94
2022/08/16 11:20:36;;;;;;;10.13;6.38;;;28.10;71.10;;;;;;5070179;28;20386;-93
2022/08/16 11:23:02;;;;;;;11.00;6.25;;;28.20;70.20;;;;;;5053404;28;20040;-92
2022/08/16 11:25:31;;;;;;;10.65;6.55;;;28.20;68.40;;;;;;5070397;28;20044;-93
2022/08/16 11:27:58;;;;;;;9.07;5.55;;;28.30;67.70;;;;;;5071738;28;20068;-94
2022/08/16 11:30:26;;;;;;;9.60;5.40;;;28.40;66.60;;;;;;5053126;28;20085;-93
2022/08/16 11:32:52;;;;;;;9.32;5.15;;;28.50;64.80;;;;;;5069402;28;20040;-93
2022/08/16 11:35:22;;;;;;;9.07;5.50;;;28.60;63.50;;;;;;5070593;28;20098;-93
2022/08/16 11:37:51;;;;;;;8.80;5.10;;;28.60;63.30;;;;;;5068948;28;20050;-93
2022/08/16 11:40:17;;;;;;;9.40;5.18;;;28.70;62.60;;;;;;5063217;28;20048;-93
2022/08/16 11:42:43;;;;;;;9.13;5.35;;;28.70;62.10;;;;;;5062498;28;20048;-93
2022/08/16 11:45:09;;;;;;;8.82;5.40;;;28.70;62.70;;;;;;5062220;28;20037;-93
2022/08/16 11:47:36;;;;;;;10.27;5.53;;;28.70;61.20;;;;;;5060286;28;20513;-93
2022/08/16 11:50:08;;;;;;;9.20;5.60;;;28.60;61.00;;;;;;5042476;28;20380;-92
2022/08/16 11:52:35;;;;;;;9.15;4.50;;;28.60;62.40;;;;;;5058886;28;20040;-93
2022/08/16 11:55:02;;;;;;;7.50;3.67;;;28.70;60.40;;;;;;5044165;28;20040;-93
2022/08/16 11:57:28;;;;;;;6.97;3.40;;;28.80;60.30;;;;;;5059485;28;20033;-93
2022/08/16 11:59:54;;;;;;;10.32;4.05;;;28.90;57.70;;;;;;5064424;28;20044;-93
2022/08/16 12:02:20;;;;;;;9.90;3.85;;;29.00;59.50;;;;;;5052970;28;20119;-94
2022/08/16 12:04:46;;;;;;;10.10;3.80;;;29.10;60.00;;;;;;5053269;28;20178;-94
2022/08/16 12:07:12;;;;;;;7.65;3.65;;;29.30;61.10;;;;;;5052936;28;20085;-85
2022/08/16 12:09:38;;;;;;;8.27;3.53;;;29.40;57.70;;;;;;5052943;28;20060;-86
2022/08/16 12:12:04;;;;;;;6.60;3.20;;;29.40;56.50;;;;;;5052336;28;20045;-85
2022/08/16 12:14:31;;;;;;;7.88;3.03;;;29.60;57.80;;;;;;5069437;28;20047;-85
2022/08/16 12:16:59;;;;;;;6.95;3.28;;;29.70;55.80;;;;;;5052712;28;20036;-85
2022/08/16 12:19:25;;;;;;;7.35;3.45;;;29.80;55.20;;;;;;5052510;28;20059;-85
2022/08/16 12:21:50;;;;;;;8.88;3.42;;;29.80;54.10;;;;;;5068727;28;20501;-85
2022/08/16 12:24:16;;;;;;;7.22;3.58;;;29.80;53.50;;;;;;5052634;28;20040;-85
2022/08/16 12:26:42;;;;;;;7.25;3.60;;;29.90;53.40;;;;;;5052708;28;20043;-85
2022/08/16 12:29:07;;;;;;;8.75;3.30;;;29.90;52.90;;;;;;5052539;28;20505;-84
2022/08/16 12:31:34;;;;;;;6.68;3.55;;;30.00;53.00;;;;;;5069054;28;20079;-85